createdAt,value
2018-11-02T00:00:01.075Z,8.47
2018-11-02T00:01:01.021Z,8.47
2018-11-02T00:02:01.018Z,8.29
2018-11-02T00:03:01.042Z,8.30
2018-11-02T00:04:01.010Z,8.44
2018-11-02T00:05:01.007Z,8.37
2018-11-02T00:06:01.020Z,8.30
2018-11-02T00:07:01.006Z,8.39
2018-11-02T00:08:01.022Z,8.22
2018-11-02T00:09:00.989Z,8.32
2018-11-02T00:10:00.986Z,8.30
2018-11-02T00:11:00.990Z,8.37
2018-11-02T00:12:00.983Z,8.33
2018-11-02T00:13:01.001Z,8.32
2018-11-02T00:14:00.969Z,8.36
2018-11-02T00:15:00.971Z,8.44
2018-11-02T00:16:00.968Z,8.48
2018-11-02T00:17:00.961Z,8.45
2018-11-02T00:18:00.988Z,8.44
2018-11-02T00:19:00.951Z,8.44
2018-11-02T00:20:00.949Z,8.35
2018-11-02T00:21:00.946Z,8.30
2018-11-02T00:22:00.943Z,8.20
2018-11-02T00:23:00.963Z,8.12
2018-11-02T00:24:00.936Z,8.03
2018-11-02T00:25:00.923Z,7.93
2018-11-02T00:26:00.924Z,7.87
2018-11-02T00:27:00.921Z,7.90
2018-11-02T00:28:00.941Z,7.89
2018-11-02T00:29:00.913Z,7.99
2018-11-02T00:30:00.908Z,7.99
2018-11-02T00:31:00.900Z,8.08
2018-11-02T00:32:00.988Z,8.11
2018-11-02T00:33:00.919Z,8.07
2018-11-02T00:34:00.893Z,7.90
2018-11-02T00:35:00.887Z,7.63
2018-11-02T00:36:00.884Z,7.34
2018-11-02T00:37:00.882Z,7.20
2018-11-02T00:38:00.903Z,7.09
2018-11-02T00:39:00.875Z,7.02
2018-11-02T00:40:00.867Z,6.89
2018-11-02T00:41:00.885Z,6.89
2018-11-02T00:42:00.870Z,6.83
2018-11-02T00:43:00.881Z,6.79
2018-11-02T00:44:00.878Z,6.79
2018-11-02T00:45:00.841Z,6.73
2018-11-02T00:46:00.860Z,6.73
2018-11-02T00:47:00.837Z,6.83
2018-11-02T00:48:00.860Z,6.90
2018-11-02T00:49:00.855Z,6.87
2018-11-02T00:50:00.820Z,6.98
2018-11-02T00:51:00.842Z,7.08
2018-11-02T00:52:00.816Z,7.05
2018-11-02T00:53:00.841Z,6.94
2018-11-02T00:54:00.808Z,6.81
2018-11-02T00:55:00.819Z,6.72
2018-11-02T00:56:00.801Z,6.81
2018-11-02T00:57:00.795Z,6.79
2018-11-02T00:58:00.817Z,6.89
2018-11-02T00:59:00.784Z,6.73
2018-11-02T01:00:00.776Z,6.69
2018-11-02T01:01:00.776Z,6.63
2018-11-02T01:02:00.770Z,6.59
2018-11-02T01:03:00.796Z,6.53
2018-11-02T01:04:00.763Z,6.58
2018-11-02T01:05:00.762Z,6.58
2018-11-02T01:06:00.748Z,6.56
2018-11-02T01:07:00.747Z,6.56
2018-11-02T01:08:00.771Z,6.65
2018-11-02T01:09:00.767Z,6.65
2018-11-02T01:10:00.732Z,6.65
2018-11-02T01:11:00.725Z,6.81
2018-11-02T01:12:00.759Z,6.91
2018-11-02T01:13:00.748Z,6.86
2018-11-02T01:14:00.718Z,6.98
2018-11-02T01:15:00.711Z,7.02
2018-11-02T01:16:00.704Z,7.08
2018-11-02T01:17:00.696Z,7.17
2018-11-02T01:18:00.724Z,7.29
2018-11-02T01:19:00.694Z,7.40
2018-11-02T01:20:00.689Z,7.49
2018-11-02T01:21:00.684Z,7.84
2018-11-02T01:22:00.679Z,7.96
2018-11-02T01:23:00.701Z,8.17
2018-11-02T01:24:00.667Z,8.30
2018-11-02T01:25:00.664Z,8.47
2018-11-02T01:26:00.690Z,8.57
2018-11-02T01:27:00.657Z,8.62
2018-11-02T01:28:00.677Z,8.84
2018-11-02T01:29:00.648Z,8.91
2018-11-02T01:30:00.641Z,8.96
2018-11-02T01:31:00.636Z,8.97
2018-11-02T01:32:00.629Z,9.15
2018-11-02T01:33:00.664Z,9.09
2018-11-02T01:34:00.624Z,9.23
2018-11-02T01:35:00.620Z,9.24
2018-11-02T01:36:00.616Z,9.28
2018-11-02T01:37:00.616Z,9.31
2018-11-02T01:38:00.639Z,9.13
2018-11-02T01:39:00.601Z,9.24
2018-11-02T01:40:00.601Z,9.25
2018-11-02T01:41:00.601Z,9.27
2018-11-02T01:42:00.692Z,9.30
2018-11-02T01:43:00.622Z,9.32
2018-11-02T01:44:00.586Z,9.38
2018-11-02T01:45:00.581Z,9.35
2018-11-02T01:46:00.574Z,9.28
2018-11-02T01:47:00.575Z,9.31
2018-11-02T01:48:00.602Z,9.30
2018-11-02T01:49:00.566Z,9.39
2018-11-02T01:50:00.563Z,9.28
2018-11-02T01:51:00.558Z,9.35
2018-11-02T01:52:00.552Z,9.28
2018-11-02T01:53:00.578Z,9.49
2018-11-02T01:54:00.549Z,9.46
2018-11-02T01:55:00.549Z,9.46
2018-11-02T01:56:00.541Z,9.45
2018-11-02T01:57:00.534Z,9.52
2018-11-02T01:58:00.565Z,9.46
2018-11-02T01:59:00.529Z,9.42
2018-11-02T02:00:00.525Z,9.49
2018-11-02T02:01:00.517Z,9.34
2018-11-02T02:02:00.526Z,9.45
2018-11-02T02:03:00.546Z,9.46
2018-11-02T02:04:00.505Z,9.38
2018-11-02T02:05:00.505Z,9.38
2018-11-02T02:06:00.501Z,9.34
2018-11-02T02:07:00.525Z,9.25
2018-11-02T02:08:00.497Z,9.28
2018-11-02T02:09:00.494Z,9.28
2018-11-02T02:10:00.485Z,9.30
2018-11-02T02:11:00.489Z,9.38
2018-11-02T02:12:00.505Z,9.43
2018-11-02T02:13:00.508Z,9.49
2018-11-02T02:14:00.472Z,9.42
2018-11-02T02:15:00.473Z,9.43
2018-11-02T02:16:00.465Z,9.53
2018-11-02T02:17:00.495Z,9.67
2018-11-02T02:18:00.457Z,9.68
2018-11-02T02:19:00.468Z,9.63
2018-11-02T02:20:00.453Z,9.64
2018-11-02T02:21:00.450Z,9.53
2018-11-02T02:22:00.517Z,9.56
2018-11-02T02:23:00.443Z,9.63
2018-11-02T02:24:00.438Z,9.46
2018-11-02T02:25:00.435Z,9.50
2018-11-02T02:26:00.431Z,9.60
2018-11-02T02:27:00.459Z,9.45
2018-11-02T02:28:00.422Z,9.45
2018-11-02T02:29:00.418Z,9.53
2018-11-02T02:30:00.420Z,9.42
2018-11-02T02:31:00.413Z,9.56
2018-11-02T02:32:00.438Z,9.50
2018-11-02T02:33:00.405Z,9.56
2018-11-02T02:34:00.402Z,9.56
2018-11-02T02:35:00.393Z,9.46
2018-11-02T02:36:00.393Z,9.49
2018-11-02T02:37:00.420Z,9.45
2018-11-02T02:38:00.386Z,9.49
2018-11-02T02:39:00.388Z,9.49
2018-11-02T02:40:00.382Z,9.40
2018-11-02T02:41:00.377Z,9.45
2018-11-02T02:42:00.404Z,9.35
2018-11-02T02:43:00.367Z,9.35
2018-11-02T02:44:00.369Z,9.23
2018-11-02T02:45:00.362Z,9.23
2018-11-02T02:46:00.357Z,9.24
2018-11-02T02:47:00.384Z,9.10
2018-11-02T02:48:00.354Z,9.09
2018-11-02T02:49:00.353Z,9.05
2018-11-02T02:50:00.347Z,9.05
2018-11-02T02:51:00.338Z,9.06
2018-11-02T02:52:00.374Z,9.05
2018-11-02T02:53:00.329Z,9.01
2018-11-02T02:54:00.333Z,9.04
2018-11-02T02:55:00.325Z,9.05
2018-11-02T02:56:00.322Z,9.09
2018-11-02T02:57:00.349Z,9.12
2018-11-02T02:58:00.313Z,9.10
2018-11-02T02:59:00.346Z,9.16
2018-11-02T03:00:00.319Z,9.23
2018-11-02T03:01:00.310Z,9.09
2018-11-02T03:02:00.358Z,9.10
2018-11-02T03:03:00.298Z,9.06
2018-11-02T03:04:00.293Z,8.94
2018-11-02T03:05:00.290Z,9.06
2018-11-02T03:06:00.281Z,9.12
2018-11-02T03:07:00.310Z,9.05
2018-11-02T03:08:00.285Z,9.09
2018-11-02T03:09:00.308Z,9.05
2018-11-02T03:10:00.269Z,9.05
2018-11-02T03:11:00.540Z,9.02
2018-11-02T03:12:00.268Z,9.06
2018-11-02T03:13:00.283Z,9.04
2018-11-02T03:14:00.253Z,8.88
2018-11-02T03:15:00.279Z,8.91
2018-11-02T03:16:00.250Z,8.94
2018-11-02T03:17:00.272Z,8.94
2018-11-02T03:18:00.242Z,8.97
2018-11-02T03:19:00.238Z,8.94
2018-11-02T03:20:00.230Z,8.99
2018-11-02T03:21:00.250Z,9.04
2018-11-02T03:22:00.227Z,9.06
2018-11-02T03:23:00.226Z,9.10
2018-11-02T03:24:00.217Z,9.06
2018-11-02T03:25:00.217Z,8.91
2018-11-02T03:26:00.240Z,8.97
2018-11-02T03:27:00.214Z,8.97
2018-11-02T03:28:00.202Z,8.93
2018-11-02T03:29:00.198Z,8.93
2018-11-02T03:30:00.240Z,8.91
2018-11-02T03:31:00.187Z,8.96
2018-11-02T03:32:00.217Z,8.94
2018-11-02T03:33:00.183Z,8.88
2018-11-02T03:34:00.176Z,8.90
2018-11-02T03:35:00.175Z,8.84
2018-11-02T03:36:00.171Z,8.88
2018-11-02T03:37:00.196Z,8.94
2018-11-02T03:38:00.162Z,8.93
2018-11-02T03:39:00.158Z,8.90
2018-11-02T03:40:00.153Z,8.99
2018-11-02T03:41:00.174Z,8.90
2018-11-02T03:42:00.145Z,8.78
2018-11-02T03:43:00.142Z,8.86
2018-11-02T03:44:00.145Z,8.76
2018-11-02T03:45:00.135Z,8.84
2018-11-02T03:46:00.168Z,8.86
2018-11-02T03:47:00.130Z,8.76
2018-11-02T03:48:00.123Z,8.84
2018-11-02T03:49:00.125Z,8.86
2018-11-02T03:50:00.151Z,8.86
2018-11-02T03:51:00.113Z,8.84
2018-11-02T03:52:00.116Z,8.75
2018-11-02T03:53:00.107Z,8.63
2018-11-02T03:54:00.102Z,8.71
2018-11-02T03:55:00.128Z,8.66
2018-11-02T03:56:00.095Z,8.65
2018-11-02T03:57:00.107Z,8.65
2018-11-02T03:58:00.087Z,8.71
2018-11-02T03:59:00.080Z,8.73
2018-11-02T04:00:00.109Z,8.75
2018-11-02T04:01:00.079Z,8.71
2018-11-02T04:02:00.112Z,8.68
2018-11-02T04:03:00.068Z,8.72
2018-11-02T04:04:00.062Z,8.66
2018-11-02T04:05:00.086Z,8.69
2018-11-02T04:06:00.057Z,8.69
2018-11-02T04:07:00.051Z,8.63
2018-11-02T04:08:00.041Z,8.57
2018-11-02T04:09:00.043Z,8.57
2018-11-02T04:10:00.067Z,8.54
2018-11-02T04:11:00.039Z,8.63
2018-11-02T04:12:00.035Z,8.65
2018-11-02T04:13:00.026Z,8.65
2018-11-02T04:14:00.024Z,8.65
2018-11-02T04:15:00.046Z,8.65
2018-11-02T04:16:00.019Z,8.68
2018-11-02T04:17:00.010Z,8.58
2018-11-02T04:18:00.007Z,8.57
2018-11-02T04:19:00.032Z,8.55
2018-11-02T04:20:00.026Z,8.57
2018-11-02T04:20:59.995Z,8.53
2018-11-02T04:21:59.991Z,8.54
2018-11-02T04:22:59.992Z,8.54
2018-11-02T04:23:59.985Z,8.54
2018-11-02T04:25:00.004Z,8.62
2018-11-02T04:25:59.976Z,8.60
2018-11-02T04:26:59.973Z,8.55
2018-11-02T04:27:59.963Z,8.60
2018-11-02T04:28:59.966Z,8.51
2018-11-02T04:29:59.987Z,8.54
2018-11-02T04:31:00.009Z,8.55
2018-11-02T04:31:59.954Z,8.53
2018-11-02T04:32:59.947Z,8.50
2018-11-02T04:33:59.948Z,8.40
2018-11-02T04:34:59.970Z,8.39
2018-11-02T04:35:59.934Z,8.30
2018-11-02T04:36:59.926Z,8.48
2018-11-02T04:37:59.923Z,8.37
2018-11-02T04:38:59.919Z,8.53
2018-11-02T04:39:59.946Z,8.42
2018-11-02T04:40:59.918Z,8.39
2018-11-02T04:41:59.911Z,8.40
2018-11-02T04:42:59.903Z,8.35
2018-11-02T04:43:59.899Z,8.39
2018-11-02T04:44:59.921Z,8.35
2018-11-02T04:45:59.894Z,8.37
2018-11-02T04:46:59.886Z,8.37
2018-11-02T04:47:59.884Z,8.30
2018-11-02T04:48:59.880Z,8.40
2018-11-02T04:49:59.879Z,8.29
2018-11-02T04:50:59.958Z,8.45
2018-11-02T04:51:59.918Z,8.40
2018-11-02T04:52:59.865Z,8.45
2018-11-02T04:53:59.859Z,8.55
2018-11-02T04:54:59.856Z,8.45
2018-11-02T04:55:59.875Z,8.48
2018-11-02T04:56:59.847Z,8.47
2018-11-02T04:57:59.847Z,8.40
2018-11-02T04:58:59.839Z,8.35
2018-11-02T04:59:59.871Z,8.36
2018-11-02T05:00:59.833Z,8.32
2018-11-02T05:01:59.852Z,8.33
2018-11-02T05:02:59.825Z,8.42
2018-11-02T05:03:59.816Z,8.35
2018-11-02T05:04:59.827Z,8.47
2018-11-02T05:05:59.841Z,8.33
2018-11-02T05:06:59.803Z,8.35
2018-11-02T05:07:59.801Z,8.30
2018-11-02T05:08:59.800Z,8.33
2018-11-02T05:09:59.963Z,8.25
2018-11-02T05:10:59.815Z,8.18
2018-11-02T05:11:59.784Z,8.25
2018-11-02T05:12:59.780Z,8.30
2018-11-02T05:13:59.775Z,8.26
2018-11-02T05:14:59.800Z,8.29
2018-11-02T05:15:59.767Z,8.29
2018-11-02T05:16:59.763Z,8.17
2018-11-02T05:17:59.760Z,8.22
2018-11-02T05:18:59.753Z,8.28
2018-11-02T05:19:59.781Z,8.26
2018-11-02T05:20:59.761Z,8.20
2018-11-02T05:21:59.745Z,8.20
2018-11-02T05:22:59.740Z,8.17
2018-11-02T05:23:59.737Z,8.15
2018-11-02T05:24:59.756Z,8.21
2018-11-02T05:25:59.722Z,8.20
2018-11-02T05:26:59.718Z,8.14
2018-11-02T05:27:59.716Z,8.26
2018-11-02T05:28:59.748Z,8.20
2018-11-02T05:29:59.736Z,8.26
2018-11-02T05:30:59.711Z,8.20
2018-11-02T05:31:59.699Z,8.21
2018-11-02T05:32:59.697Z,8.20
2018-11-02T05:33:59.691Z,8.25
2018-11-02T05:34:59.724Z,8.30
2018-11-02T05:35:59.681Z,8.28
2018-11-02T05:36:59.679Z,8.29
2018-11-02T05:37:59.676Z,8.32
2018-11-02T05:38:59.676Z,8.30
2018-11-02T05:39:59.696Z,8.29
2018-11-02T05:40:59.663Z,8.33
2018-11-02T05:41:59.697Z,8.28
2018-11-02T05:42:59.657Z,8.32
2018-11-02T05:43:59.647Z,8.28
2018-11-02T05:44:59.672Z,8.28
2018-11-02T05:45:59.641Z,8.30
2018-11-02T05:46:59.667Z,8.20
2018-11-02T05:47:59.645Z,8.32
2018-11-02T05:48:59.630Z,8.32
2018-11-02T05:49:59.652Z,8.35
2018-11-02T05:50:59.622Z,8.33
2018-11-02T05:51:59.616Z,8.37
2018-11-02T05:52:59.613Z,8.32
2018-11-02T05:53:59.648Z,8.35
2018-11-02T05:54:59.627Z,8.30
2018-11-02T05:55:59.602Z,8.39
2018-11-02T05:56:59.596Z,8.37
2018-11-02T05:57:59.592Z,8.35
2018-11-02T05:58:59.583Z,8.32
2018-11-02T05:59:59.612Z,8.30
2018-11-02T06:00:59.583Z,8.17
2018-11-02T06:01:59.576Z,8.26
2018-11-02T06:02:59.571Z,8.29
2018-11-02T06:03:59.588Z,8.30
2018-11-02T06:04:59.593Z,8.28
2018-11-02T06:05:59.560Z,8.29
2018-11-02T06:06:59.555Z,8.29
2018-11-02T06:07:59.577Z,8.29
2018-11-02T06:08:59.604Z,8.36
2018-11-02T06:09:59.569Z,8.37
2018-11-02T06:10:59.536Z,8.29
2018-11-02T06:11:59.528Z,8.29
2018-11-02T06:12:59.532Z,8.32
2018-11-02T06:13:59.524Z,8.30
2018-11-02T06:14:59.547Z,8.47
2018-11-02T06:15:59.525Z,8.37
2018-11-02T06:16:59.657Z,8.29
2018-11-02T06:17:59.517Z,8.33
2018-11-02T06:18:59.508Z,8.33
2018-11-02T06:19:59.535Z,8.33
2018-11-02T06:20:59.495Z,8.29
2018-11-02T06:21:59.499Z,8.44
2018-11-02T06:22:59.491Z,8.40
2018-11-02T06:23:59.502Z,8.39
2018-11-02T06:24:59.508Z,8.45
2018-11-02T06:25:59.476Z,8.33
2018-11-02T06:26:59.473Z,8.32
2018-11-02T06:27:59.477Z,8.37
2018-11-02T06:29:01.609Z,8.35
2018-11-02T06:29:59.488Z,8.37
2018-11-02T06:30:59.456Z,8.36
2018-11-02T06:31:59.447Z,8.37
2018-11-02T06:32:59.552Z,8.32
2018-11-02T06:33:59.462Z,8.32
2018-11-02T06:34:59.445Z,8.40
2018-11-02T06:35:59.436Z,8.37
2018-11-02T06:36:59.437Z,8.40
2018-11-02T06:37:59.428Z,8.44
2018-11-02T06:38:59.627Z,8.44
2018-11-02T06:39:59.416Z,8.30
2018-11-02T06:40:59.413Z,8.39
2018-11-02T06:41:59.436Z,8.33
2018-11-02T06:42:59.404Z,8.32
2018-11-02T06:43:59.402Z,8.39
2018-11-02T06:44:59.517Z,8.47
2018-11-02T06:45:59.388Z,8.47
2018-11-02T06:46:59.392Z,8.50
2018-11-02T06:47:59.380Z,8.53
2018-11-02T06:48:59.380Z,8.54
2018-11-02T06:49:59.404Z,8.54
2018-11-02T06:50:59.398Z,8.55
2018-11-02T06:51:59.370Z,8.54
2018-11-02T06:52:59.364Z,8.48
2018-11-02T06:53:59.391Z,8.55
2018-11-02T06:54:59.362Z,8.51
2018-11-02T06:55:59.356Z,8.57
2018-11-02T06:56:59.355Z,8.54
2018-11-02T06:57:59.348Z,8.55
2018-11-02T06:58:59.432Z,8.63
2018-11-02T06:59:59.564Z,8.62
2018-11-02T07:00:59.336Z,8.58
2018-11-02T07:01:59.340Z,8.72
2018-11-02T07:02:59.328Z,8.68
2018-11-02T07:03:59.355Z,8.62
2018-11-02T07:04:59.323Z,8.66
2018-11-02T07:05:59.313Z,8.69
2018-11-02T07:06:59.377Z,8.72
2018-11-02T07:07:59.386Z,8.71
2018-11-02T07:08:59.339Z,8.76
2018-11-02T07:09:59.298Z,8.83
2018-11-02T07:10:59.299Z,8.97
2018-11-02T07:11:59.304Z,9.01
2018-11-02T07:12:59.294Z,9.13
2018-11-02T07:13:59.314Z,9.20
2018-11-02T07:14:59.282Z,9.40
2018-11-02T07:15:59.281Z,9.56
2018-11-02T07:16:59.277Z,9.56
2018-11-02T07:17:59.275Z,9.78
2018-11-02T07:18:59.300Z,9.81
2018-11-02T07:19:59.270Z,9.68
2018-11-02T07:20:59.264Z,9.57
2018-11-02T07:21:59.269Z,9.45
2018-11-02T07:22:59.272Z,9.52
2018-11-02T07:23:59.295Z,9.63
2018-11-02T07:24:59.283Z,9.79
2018-11-02T07:25:59.252Z,9.76
2018-11-02T07:26:59.245Z,9.85
2018-11-02T07:27:59.250Z,9.85
2018-11-02T07:28:59.272Z,9.88
2018-11-02T07:29:59.245Z,9.99
2018-11-02T07:30:59.245Z,10.09
2018-11-02T07:31:59.244Z,10.07
2018-11-02T07:32:59.233Z,10.14
2018-11-02T07:33:59.258Z,10.25
2018-11-02T07:34:59.240Z,10.28
2018-11-02T07:35:59.225Z,10.25
2018-11-02T07:36:59.229Z,10.24
2018-11-02T07:37:59.256Z,10.22
2018-11-02T07:38:59.224Z,10.15
2018-11-02T07:39:59.227Z,10.24
2018-11-02T07:40:59.225Z,10.39
2018-11-02T07:41:59.221Z,10.26
2018-11-02T07:42:59.254Z,10.24
2018-11-02T07:43:59.227Z,10.36
2018-11-02T07:44:59.212Z,10.39
2018-11-02T07:45:59.216Z,10.47
2018-11-02T07:46:59.218Z,10.55
2018-11-02T07:47:59.254Z,10.86
2018-11-02T07:48:59.214Z,10.58
2018-11-02T07:49:59.211Z,10.59
2018-11-02T07:50:59.214Z,10.83
2018-11-02T07:51:59.211Z,10.98
2018-11-02T07:52:59.284Z,11.06
2018-11-02T07:53:59.209Z,11.06
2018-11-02T07:54:59.216Z,11.27
2018-11-02T07:55:59.209Z,11.21
2018-11-02T07:56:59.208Z,10.96
2018-11-02T07:57:59.233Z,10.77
2018-11-02T07:58:59.213Z,10.99
2018-11-02T07:59:59.213Z,11.24
2018-11-02T08:00:59.208Z,11.38
2018-11-02T08:01:59.210Z,11.28
2018-11-02T08:02:59.233Z,11.34
2018-11-02T08:03:59.652Z,11.41
2018-11-02T08:04:59.209Z,11.19
2018-11-02T08:05:59.206Z,11.21
2018-11-02T08:06:59.207Z,11.10
2018-11-02T08:07:59.229Z,11.21
2018-11-02T08:08:59.209Z,11.49
2018-11-02T08:09:59.210Z,11.38
2018-11-02T08:10:59.213Z,11.80
2018-11-02T08:11:59.212Z,12.09
2018-11-02T08:12:59.251Z,11.89
2018-11-02T08:13:59.209Z,11.50
2018-11-02T08:14:59.213Z,11.49
2018-11-02T08:15:59.205Z,11.61
2018-11-02T08:16:59.209Z,11.67
2018-11-02T08:17:59.237Z,11.78
2018-11-02T08:18:59.225Z,11.75
2018-11-02T08:19:59.207Z,11.64
2018-11-02T08:20:59.208Z,11.59
2018-11-02T08:21:59.213Z,11.46
2018-11-02T08:22:59.245Z,11.28
2018-11-02T08:23:59.215Z,11.19
2018-11-02T08:24:59.214Z,11.32
2018-11-02T08:25:59.210Z,11.17
2018-11-02T08:26:59.214Z,11.24
2018-11-02T08:27:59.241Z,11.21
2018-11-02T08:28:59.236Z,11.36
2018-11-02T08:29:59.210Z,11.27
2018-11-02T08:30:59.209Z,11.41
2018-11-02T08:31:59.236Z,11.47
2018-11-02T08:32:59.237Z,11.54
2018-11-02T08:33:59.209Z,11.49
2018-11-02T08:34:59.210Z,11.68
2018-11-02T08:35:59.205Z,11.68
2018-11-02T08:36:59.205Z,11.74
2018-11-02T08:37:59.233Z,11.62
2018-11-02T08:38:59.206Z,11.68
2018-11-02T08:39:59.198Z,11.57
2018-11-02T08:40:59.202Z,11.53
2018-11-02T08:41:59.268Z,11.68
2018-11-02T08:42:59.228Z,11.72
2018-11-02T08:43:59.199Z,11.80
2018-11-02T08:44:59.201Z,11.93
2018-11-02T08:45:59.199Z,12.04
2018-11-02T08:46:59.193Z,12.05
2018-11-02T08:47:59.221Z,12.13
2018-11-02T08:48:59.196Z,12.21
2018-11-02T08:49:59.193Z,12.33
2018-11-02T08:50:59.193Z,12.56
2018-11-02T08:51:59.195Z,12.57
2018-11-02T08:52:59.222Z,12.64
2018-11-02T08:53:59.190Z,12.71
2018-11-02T08:54:59.190Z,12.77
2018-11-02T08:55:59.189Z,12.96
2018-11-02T08:56:59.190Z,13.00
2018-11-02T08:57:59.300Z,13.04
2018-11-02T08:58:59.221Z,13.17
2018-11-02T08:59:59.198Z,13.20
2018-11-02T09:00:59.324Z,13.21
2018-11-02T09:02:00.183Z,13.33
2018-11-02T09:03:01.120Z,13.32
2018-11-02T09:03:59.187Z,13.14
2018-11-02T09:04:59.257Z,12.67
2018-11-02T09:05:59.194Z,12.29
2018-11-02T09:06:59.190Z,11.89
2018-11-02T09:07:59.215Z,12.09
2018-11-02T09:08:59.187Z,12.24
2018-11-02T09:09:59.188Z,12.41
2018-11-02T09:10:59.193Z,12.34
2018-11-02T09:11:59.199Z,12.38
2018-11-02T09:12:59.215Z,12.45
2018-11-02T09:13:59.187Z,12.42
2018-11-02T09:14:59.195Z,12.49
2018-11-02T09:15:59.190Z,12.46
2018-11-02T09:16:59.191Z,12.29
2018-11-02T09:17:59.218Z,12.39
2018-11-02T09:18:59.274Z,12.39
2018-11-02T09:19:59.195Z,12.37
2018-11-02T09:20:59.190Z,12.37
2018-11-02T09:21:59.195Z,12.38
2018-11-02T09:22:59.227Z,12.41
2018-11-02T09:23:59.190Z,12.46
2018-11-02T09:24:59.197Z,12.51
2018-11-02T09:25:59.191Z,12.57
2018-11-02T09:26:59.256Z,12.51
2018-11-02T09:27:59.419Z,12.38
2018-11-02T09:28:59.308Z,12.24
2018-11-02T09:29:59.187Z,12.19
2018-11-02T09:30:59.196Z,12.26
2018-11-02T09:31:59.197Z,12.37
2018-11-02T09:32:59.224Z,12.21
2018-11-02T09:33:59.195Z,12.20
2018-11-02T09:34:59.191Z,12.24
2018-11-02T09:35:59.195Z,12.31
2018-11-02T09:36:59.195Z,12.70
2018-11-02T09:37:59.223Z,12.75
2018-11-02T09:38:59.203Z,12.99
2018-11-02T09:39:59.196Z,12.99
2018-11-02T09:40:59.196Z,13.00
2018-11-02T09:41:59.194Z,13.00
2018-11-02T09:42:59.220Z,12.99
2018-11-02T09:43:59.203Z,12.79
2018-11-02T09:44:59.205Z,12.78
2018-11-02T09:45:59.198Z,12.64
2018-11-02T09:46:59.210Z,12.54
2018-11-02T09:47:59.234Z,12.41
2018-11-02T09:48:59.204Z,12.44
2018-11-02T09:49:59.199Z,12.39
2018-11-02T09:50:59.201Z,12.38
2018-11-02T09:51:59.307Z,12.24
2018-11-02T09:52:59.203Z,12.30
2018-11-02T09:53:59.198Z,12.38
2018-11-02T09:54:59.200Z,12.31
2018-11-02T09:55:59.199Z,12.49
2018-11-02T09:56:59.228Z,12.54
2018-11-02T09:57:59.199Z,12.67
2018-11-02T09:58:59.219Z,12.56
2018-11-02T09:59:59.274Z,12.59
2018-11-02T10:00:59.316Z,12.46
2018-11-02T10:01:59.267Z,12.57
2018-11-02T10:02:59.224Z,12.66
2018-11-02T10:03:59.192Z,12.49
2018-11-02T10:04:59.190Z,12.54
2018-11-02T10:05:59.196Z,12.54
2018-11-02T10:06:59.230Z,12.57
2018-11-02T10:07:59.897Z,12.64
2018-11-02T10:08:59.248Z,12.64
2018-11-02T10:09:59.216Z,12.71
2018-11-02T10:10:59.192Z,12.71
2018-11-02T10:11:59.220Z,12.87
2018-11-02T10:12:59.192Z,12.99
2018-11-02T10:13:59.188Z,12.96
2018-11-02T10:14:59.221Z,13.03
2018-11-02T10:15:59.198Z,12.99
2018-11-02T10:16:59.184Z,12.81
2018-11-02T10:17:59.224Z,12.82
2018-11-02T10:18:59.189Z,12.75
2018-11-02T10:19:59.184Z,12.67
2018-11-02T10:20:59.185Z,12.69
2018-11-02T10:21:59.183Z,12.66
2018-11-02T10:22:59.313Z,12.85
2018-11-02T10:23:59.275Z,12.84
2018-11-02T10:24:59.807Z,12.42
2018-11-02T10:25:59.173Z,12.46
2018-11-02T10:26:59.181Z,12.46
2018-11-02T10:27:59.410Z,12.42
2018-11-02T10:28:59.188Z,12.45
2018-11-02T10:29:59.187Z,12.64
2018-11-02T10:30:59.180Z,12.81
2018-11-02T10:31:59.212Z,12.89
2018-11-02T10:32:59.188Z,12.99
2018-11-02T10:34:00.127Z,12.95
2018-11-02T10:34:59.181Z,13.00
2018-11-02T10:35:59.225Z,13.04
2018-11-02T10:36:59.213Z,13.09
2018-11-02T10:37:59.187Z,13.06
2018-11-02T10:38:59.194Z,12.97
2018-11-02T10:40:04.375Z,12.79
2018-11-02T10:41:03.128Z,12.93
2018-11-02T10:42:00.801Z,13.09
2018-11-02T10:42:59.185Z,13.11
2018-11-02T10:43:59.183Z,13.29
2018-11-02T10:44:59.216Z,13.29
2018-11-02T10:45:59.190Z,13.30
2018-11-02T10:46:59.220Z,13.43
2018-11-02T10:47:59.183Z,13.52
2018-11-02T10:48:59.185Z,13.59
2018-11-02T10:49:59.186Z,13.51
2018-11-02T10:50:59.189Z,13.62
2018-11-02T10:51:59.211Z,14.02
2018-11-02T10:52:59.182Z,14.42
2018-11-02T10:53:59.185Z,14.61
2018-11-02T10:54:59.192Z,15.38
2018-11-02T10:56:01.797Z,15.08
2018-11-02T10:57:01.807Z,14.93
2018-11-02T10:58:02.145Z,14.74
2018-11-02T10:58:59.206Z,14.64
2018-11-02T10:59:59.199Z,14.78
2018-11-02T11:00:59.316Z,15.06
2018-11-02T11:01:59.208Z,15.01
2018-11-02T11:02:59.241Z,15.49
2018-11-02T11:03:59.216Z,15.67
2018-11-02T11:04:59.217Z,15.70
2018-11-02T11:05:59.222Z,15.60
2018-11-02T11:06:59.249Z,15.88
2018-11-02T11:07:59.229Z,15.96
2018-11-02T11:08:59.233Z,16.18
2018-11-02T11:09:59.238Z,16.48
2018-11-02T11:10:59.244Z,16.42
2018-11-02T11:11:59.372Z,16.44
2018-11-02T11:12:59.537Z,16.81
2018-11-02T11:13:59.260Z,16.90
2018-11-02T11:14:59.268Z,16.85
2018-11-02T11:15:59.301Z,16.98
2018-11-02T11:16:59.282Z,17.29
2018-11-02T11:17:59.315Z,17.47
2018-11-02T11:18:59.295Z,17.82
2018-11-02T11:19:59.304Z,18.49
2018-11-02T11:20:59.336Z,18.64
2018-11-02T11:21:59.351Z,18.44
2018-11-02T11:22:59.334Z,18.39
2018-11-02T11:23:59.344Z,17.97
2018-11-02T11:24:59.350Z,18.07
2018-11-02T11:25:59.366Z,18.55
2018-11-02T11:26:59.400Z,18.57
2018-11-02T11:27:59.382Z,18.76
2018-11-02T11:28:59.437Z,19.13
2018-11-02T11:29:59.408Z,19.33
2018-11-02T11:30:59.420Z,19.40
2018-11-02T11:31:59.461Z,19.61
2018-11-02T11:32:59.439Z,19.75
2018-11-02T11:33:59.449Z,19.53
2018-11-02T11:34:59.473Z,18.43
2018-11-02T11:35:59.509Z,17.82
2018-11-02T11:36:59.492Z,17.81
2018-11-02T11:37:59.564Z,18.31
2018-11-02T11:38:59.515Z,18.59
2018-11-02T11:39:59.533Z,18.86
2018-11-02T11:40:59.544Z,19.11
2018-11-02T11:41:59.584Z,19.29
2018-11-02T11:42:59.567Z,19.33
2018-11-02T11:43:59.587Z,19.21
2018-11-02T11:44:59.596Z,18.98
2018-11-02T11:45:59.608Z,18.98
2018-11-02T11:46:59.649Z,18.84
2018-11-02T11:47:59.637Z,18.58
2018-11-02T11:48:59.789Z,18.80
2018-11-02T11:49:59.660Z,18.95
2018-11-02T11:50:59.677Z,19.36
2018-11-02T11:51:59.717Z,19.54
2018-11-02T11:52:59.707Z,19.69
2018-11-02T11:53:59.717Z,19.63
2018-11-02T11:54:59.733Z,19.83
2018-11-02T11:55:59.744Z,19.73
2018-11-02T11:56:59.781Z,19.79
2018-11-02T11:57:59.767Z,19.90
2018-11-02T11:58:59.784Z,20.30
2018-11-02T11:59:59.794Z,20.38
2018-11-02T12:00:59.801Z,20.28
2018-11-02T12:01:59.849Z,20.39
2018-11-02T12:02:59.835Z,20.15
2018-11-02T12:03:59.847Z,20.28
2018-11-02T12:04:59.934Z,20.18
2018-11-02T12:05:59.872Z,20.06
2018-11-02T12:06:59.922Z,20.03
2018-11-02T12:07:59.897Z,20.06
2018-11-02T12:08:59.914Z,20.21
2018-11-02T12:09:59.933Z,20.18
2018-11-02T12:10:59.941Z,20.31
2018-11-02T12:11:59.989Z,20.06
2018-11-02T12:12:59.971Z,19.86
2018-11-02T12:13:59.978Z,20.13
2018-11-02T12:14:59.996Z,20.12
2018-11-02T12:16:00.111Z,20.28
2018-11-02T12:17:00.050Z,20.42
2018-11-02T12:18:00.062Z,20.33
2018-11-02T12:19:00.074Z,20.13
2018-11-02T12:20:00.063Z,20.53
2018-11-02T12:21:00.080Z,20.58
2018-11-02T12:22:00.136Z,20.72
2018-11-02T12:23:00.137Z,20.65
2018-11-02T12:24:00.118Z,20.46
2018-11-02T12:25:00.131Z,20.50
2018-11-02T12:26:00.143Z,20.72
2018-11-02T12:27:00.192Z,20.80
2018-11-02T12:28:00.225Z,20.74
2018-11-02T12:29:00.184Z,20.76
2018-11-02T12:30:00.198Z,20.77
2018-11-02T12:31:00.227Z,20.53
2018-11-02T12:32:00.270Z,20.34
2018-11-02T12:33:00.243Z,20.41
2018-11-02T12:34:00.283Z,20.46
2018-11-02T12:35:00.267Z,20.74
2018-11-02T12:36:00.282Z,21.06
2018-11-02T12:37:00.354Z,20.99
2018-11-02T12:38:00.311Z,20.95
2018-11-02T12:39:00.352Z,21.20
2018-11-02T12:40:00.338Z,21.39
2018-11-02T12:41:00.354Z,21.35
2018-11-02T12:42:00.370Z,21.06
2018-11-02T12:43:00.379Z,21.08
2018-11-02T12:44:00.547Z,21.35
2018-11-02T12:45:00.407Z,21.48
2018-11-02T12:46:00.419Z,21.60
2018-11-02T12:47:00.432Z,21.38
2018-11-02T12:48:00.515Z,21.17
2018-11-02T12:49:00.727Z,20.79
2018-11-02T12:50:00.526Z,20.74
2018-11-02T12:51:00.492Z,20.74
2018-11-02T12:52:00.504Z,20.96
2018-11-02T12:53:00.520Z,21.27
2018-11-02T12:54:00.565Z,21.06
2018-11-02T12:55:00.550Z,21.01
2018-11-02T12:56:00.565Z,20.99
2018-11-02T12:57:00.577Z,20.43
2018-11-02T12:58:00.599Z,20.54
2018-11-02T12:59:00.636Z,20.62
2018-11-02T13:00:00.622Z,20.30
2018-11-02T13:01:00.632Z,20.41
2018-11-02T13:02:00.652Z,20.39
2018-11-02T13:03:00.669Z,20.06
2018-11-02T13:04:00.701Z,20.28
2018-11-02T13:05:00.718Z,20.16
2018-11-02T13:06:00.705Z,20.09
2018-11-02T13:07:00.718Z,19.73